Time;durP1;ratioP1;P1;durP2;ratioP2;P2;SDS_P1;SDS_P2;PMS_P1;PMS_P2;Temp;Humidity;BMP_temperature;BMP_pressure;BME280_temperature;BME280_humidity;BME280_pressure;Samples;Min_cycle;Max_cycle;Signal;HPM_P1;HPM_P2
2021/12/19 00:00:22;;;;;;;;;;;;;;;0.71;86.46;98096.94;5094796;28;19957;-74
2021/12/19 00:03:31;;;;;;;;;;;;;;;0.70;86.43;98097.91;5076595;28;20336;-74
2021/12/19 00:08:52;;;;;;;;;;;;;;;0.70;86.72;98090.16;5094771;28;19961;-74
2021/12/19 00:11:19;;;;;;;;;;;;;;;0.66;86.88;98099.06;5084958;28;20440;-74
2021/12/19 00:13:45;;;;;;;;;;;;;;;0.66;87.01;98090.50;5094505;28;19948;-74
2021/12/19 00:16:11;;;;;;;;;;;;;;;0.66;87.17;98091.31;5094717;28;20293;-73
2021/12/19 00:18:37;;;;;;;;;;;;;;;0.65;87.19;98091.41;5076425;28;19959;-74
2021/12/19 00:21:04;;;;;;;;;;;;;;;0.62;87.11;98089.09;5076317;28;20342;-74
2021/12/19 00:23:30;;;;;;;;;;;;;;;0.63;87.25;98099.31;5093554;28;19979;-74
2021/12/19 00:25:56;;;;;;;;;;;;;;;0.62;87.38;98092.47;5094185;28;19954;-73
2021/12/19 00:28:22;;;;;;;;;;;;;;;0.64;87.36;98085.44;5094449;28;19965;-73
2021/12/19 00:30:47;;;;;;;;;;;;;;;0.66;87.29;98073.25;5094257;28;20331;-73
2021/12/19 00:33:13;;;;;;;;;;;;;;;0.68;87.28;98063.63;5094349;28;20376;-74
2021/12/19 00:35:39;;;;;;;;;;;;;;;0.69;87.15;98078.16;5094335;28;19988;-74
2021/12/19 00:38:05;;;;;;;;;;;;;;;0.69;87.25;98085.91;5094126;28;19953;-74
2021/12/19 00:40:36;;;;;;;;;;;;;;;0.70;87.25;98081.59;5094046;28;20010;-73
2021/12/19 00:43:09;;;;;;;;;;;;;;;0.70;87.19;98082.41;5093402;28;20450;-73
2021/12/19 00:45:37;;;;;;;;;;;;;;;0.71;87.39;98086.63;5076356;28;19960;-73
2021/12/19 00:48:04;;;;;;;;;;;;;;;0.72;87.34;98080.53;5093892;28;19955;-74
2021/12/19 00:50:31;;;;;;;;;;;;;;;0.75;87.47;98066.56;5093933;28;19957;-73
2021/12/19 00:52:58;;;;;;;;;;;;;;;0.74;87.31;98070.91;5094360;28;19953;-74
2021/12/19 00:55:25;;;;;;;;;;;;;;;0.69;87.43;98082.50;5093794;28;19980;-74
2021/12/19 00:57:51;;;;;;;;;;;;;;;0.65;87.56;98081.09;5093847;28;19958;-73
2021/12/19 01:00:18;;;;;;;;;;;;;;;0.60;87.68;98079.69;5094034;28;20390;-74
2021/12/19 01:02:44;;;;;;;;;;;;;;;0.62;87.77;98073.59;5093629;28;19971;-73
2021/12/19 01:05:10;;;;;;;;;;;;;;;0.63;87.93;98073.50;5075516;28;19963;-73
2021/12/19 01:07:36;;;;;;;;;;;;;;;0.65;87.98;98071.63;5093758;28;20352;-73
2021/12/19 01:10:04;;;;;;;;;;;;;;;0.66;87.96;98062.09;5093539;28;20050;-73
2021/12/19 01:12:31;;;;;;;;;;;;;;;0.66;87.99;98065.50;5093815;28;19962;-73
2021/12/19 01:14:57;;;;;;;;;;;;;;;0.61;88.20;98059.88;5093794;28;19949;-73
2021/12/19 01:17:24;;;;;;;;;;;;;;;0.56;88.28;98062.78;5075389;28;19972;-73
2021/12/19 01:19:49;;;;;;;;;;;;;;;0.50;87.79;98070.16;5093921;28;19959;-74
2021/12/19 01:22:16;;;;;;;;;;;;;;;0.48;88.56;98065.09;5093859;28;19966;-74
2021/12/19 01:24:42;;;;;;;;;;;;;;;0.50;88.49;98055.47;5093643;28;19961;-74
2021/12/19 01:27:08;;;;;;;;;;;;;;;0.55;88.61;98057.75;5093610;28;19953;-74
2021/12/19 01:29:34;;;;;;;;;;;;;;;0.57;88.58;98061.03;5093496;28;20005;-74
2021/12/19 01:32:01;;;;;;;;;;;;;;;0.62;88.51;98055.53;5093539;28;20000;-73
2021/12/19 01:34:26;;;;;;;;;;;;;;;0.60;88.36;98040.94;5093352;28;19953;-74
2021/12/19 01:36:52;;;;;;;;;;;;;;;0.65;88.13;98034.63;5075671;28;20383;-74
2021/12/19 01:39:18;;;;;;;;;;;;;;;0.61;88.31;98034.06;5092698;28;19954;-74
2021/12/19 01:41:55;;;;;;;;;;;;;;;0.55;87.91;98026.75;5093475;28;20413;-74
2021/12/19 01:44:21;;;;;;;;;;;;;;;0.49;88.26;98025.47;5093527;28;19971;-74
2021/12/19 01:46:48;;;;;;;;;;;;;;;0.46;88.40;98028.25;5093268;28;19953;-74
2021/12/19 01:49:15;;;;;;;;;;;;;;;0.40;88.73;98026.97;5093250;28;19963;-74
2021/12/19 01:51:41;;;;;;;;;;;;;;;0.35;88.89;98023.09;5080888;28;20368;-74
2021/12/19 01:54:07;;;;;;;;;;;;;;;0.32;89.38;98024.13;5093029;28;19984;-73
2021/12/19 01:56:32;;;;;;;;;;;;;;;0.32;89.56;98021.56;5080468;28;19969;-74
2021/12/19 01:58:58;;;;;;;;;;;;;;;0.33;89.55;98018.03;5093211;28;20052;-74
2021/12/19 02:01:25;;;;;;;;;;;;;;;0.36;89.58;98025.56;5093305;28;20000;-74
2021/12/19 02:03:51;;;;;;;;;;;;;;;0.39;89.52;98020.16;5074933;28;19992;-74
2021/12/19 02:06:17;;;;;;;;;;;;;;;0.41;89.37;98022.63;5092893;28;19964;-74
2021/12/19 02:08:42;;;;;;;;;;;;;;;0.44;89.36;98021.56;5093145;28;19963;-74
2021/12/19 02:11:08;;;;;;;;;;;;;;;0.44;89.74;98022.38;5093238;28;19954;-74
2021/12/19 02:13:34;;;;;;;;;;;;;;;0.40;89.65;98033.91;5093477;28;19964;-74
2021/12/19 02:16:00;;;;;;;;;;;;;;;0.35;89.92;98046.31;5096241;28;20307;-74
2021/12/19 02:18:26;;;;;;;;;;;;;;;0.34;90.15;98034.34;5096679;28;19953;-73
2021/12/19 02:20:54;;;;;;;;;;;;;;;0.35;90.08;98030.81;5096874;28;19954;-74
2021/12/19 02:23:22;;;;;;;;;;;;;;;0.38;89.82;98038.34;5096808;28;20404;-73
2021/12/19 02:25:48;;;;;;;;;;;;;;;0.40;89.87;98031.31;5096522;28;19955;-73
2021/12/19 02:28:14;;;;;;;;;;;;;;;0.43;89.47;98027.69;5078622;28;20315;-73
2021/12/19 02:30:40;;;;;;;;;;;;;;;0.45;89.63;98025.81;5096424;28;19953;-73
2021/12/19 02:33:13;;;;;;;;;;;;;;;0.47;89.33;98029.91;5096547;28;19948;-73
2021/12/19 02:35:42;;;;;;;;;;;;;;;0.48;89.17;98026.38;5095410;28;19948;-74
2021/12/19 02:38:34;;;;;;;;;;;;;;;0.46;89.12;98030.84;5096437;28;20313;-74
2021/12/19 02:49:19;;;;;;;;;;;;;;;0.35;89.34;98023.91;5096120;28;19953;-74
2021/12/19 02:51:45;;;;;;;;;;;;;;;0.34;88.85;98024.84;5078159;28;19952;-73
2021/12/19 02:54:11;;;;;;;;;;;;;;;0.22;88.73;98014.63;5095948;28;19994;-73
2021/12/19 02:56:37;;;;;;;;;;;;;;;0.14;89.56;98012.59;5082439;28;20000;-73
2021/12/19 02:59:03;;;;;;;;;;;;;;;0.11;89.75;98012.84;5096159;28;19958;-74
2021/12/19 03:01:30;;;;;;;;;;;;;;;0.13;90.12;98001.47;5077782;28;19954;-74
2021/12/19 03:03:56;;;;;;;;;;;;;;;0.14;90.24;97994.53;5095710;28;19966;-74
2021/12/19 03:06:22;;;;;;;;;;;;;;;0.17;90.65;97992.56;5095930;28;20054;-74
2021/12/19 03:08:50;;;;;;;;;;;;;;;0.19;89.96;97984.72;5095868;28;19952;-73
2021/12/19 03:19:48;;;;;;;;;;;;;;;0.11;90.76;97987.84;5086182;28;20420;-74
2021/12/19 03:22:14;;;;;;;;;;;;;;;0.17;90.79;97984.00;5095627;28;19954;-74
2021/12/19 03:24:40;;;;;;;;;;;;;;;0.20;90.67;97979.41;5095386;28;19988;-74
2021/12/19 03:27:06;;;;;;;;;;;;;;;0.25;90.55;97984.22;5095085;28;19971;-74
2021/12/19 03:29:32;;;;;;;;;;;;;;;0.27;90.39;97973.81;5095243;28;19952;-74
2021/12/19 03:31:58;;;;;;;;;;;;;;;0.29;90.02;97984.84;5095637;28;19960;-74
2021/12/19 03:34:24;;;;;;;;;;;;;;;0.30;89.94;97987.31;5095166;28;20015;-73
2021/12/19 03:36:51;;;;;;;;;;;;;;;0.32;89.71;97979.47;5095225;28;19949;-74
2021/12/19 03:39:26;;;;;;;;;;;;;;;0.34;89.72;97983.56;5095597;28;19964;-74
2021/12/19 03:41:54;;;;;;;;;;;;;;;0.35;89.48;97981.78;5085946;28;19963;-74
2021/12/19 03:44:20;;;;;;;;;;;;;;;0.36;89.43;97976.53;5094894;28;20349;-73
2021/12/19 03:46:46;;;;;;;;;;;;;;;0.37;89.43;97964.44;5095078;28;19960;-74
2021/12/19 03:49:16;;;;;;;;;;;;;;;0.37;89.42;97970.41;5077097;28;20337;-74
2021/12/19 03:51:42;;;;;;;;;;;;;;;0.38;89.41;97973.84;5094877;28;19965;-74
2021/12/19 03:54:08;;;;;;;;;;;;;;;0.37;89.39;97959.28;5094794;28;19983;-73
2021/12/19 03:56:34;;;;;;;;;;;;;;;0.35;89.27;97979.22;5094767;28;19961;-74
2021/12/19 03:59:00;;;;;;;;;;;;;;;0.35;89.53;97968.88;5094902;28;19960;-73
2021/12/19 04:01:26;;;;;;;;;;;;;;;0.35;89.59;97956.00;5094957;28;20413;-74
2021/12/19 04:03:52;;;;;;;;;;;;;;;0.33;89.21;97953.50;5094457;28;19976;-74
2021/12/19 04:06:18;;;;;;;;;;;;;;;0.31;89.11;97954.56;5094745;28;19962;-74
2021/12/19 04:08:44;;;;;;;;;;;;;;;0.27;89.17;97953.16;5094797;28;20065;-73
2021/12/19 04:11:11;;;;;;;;;;;;;;;0.23;88.93;97947.41;5094822;28;19966;-74
2021/12/19 04:13:37;;;;;;;;;;;;;;;0.18;89.18;97942.59;5094540;28;19967;-74
2021/12/19 04:16:03;;;;;;;;;;;;;;;0.07;89.27;97945.16;5094553;28;19957;-74
2021/12/19 04:18:28;;;;;;;;;;;;;;;-0.12;89.80;97940.56;5094373;28;19950;-74
2021/12/19 04:20:54;;;;;;;;;;;;;;;-0.17;90.66;97942.63;5094398;28;19957;-73
2021/12/19 04:23:20;;;;;;;;;;;;;;;-0.19;90.85;97944.50;5094334;28;20009;-74
2021/12/19 04:25:46;;;;;;;;;;;;;;;-0.24;91.34;97957.75;5076673;28;19995;-74
2021/12/19 04:28:13;;;;;;;;;;;;;;;-0.26;91.53;97946.72;5094173;28;20415;-73
2021/12/19 04:30:39;;;;;;;;;;;;;;;-0.20;91.75;97953.19;5094238;28;19966;-74
2021/12/19 04:33:09;;;;;;;;;;;;;;;-0.14;91.50;97939.03;5094088;28;19959;-74
2021/12/19 04:35:37;;;;;;;;;;;;;;;-0.23;90.91;97940.53;5076030;28;19971;-73
2021/12/19 04:59:50;;;;;;;;;;;;;;;-0.25;91.07;97924.38;5093566;28;20386;-73
2021/12/19 05:02:13;;;;;;;;;;;;;;;-0.30;90.92;97921.28;5085183;28;19966;-73
2021/12/19 05:15:31;;;;;;;;;;;;;;;-0.37;92.58;97914.94;5081293;28;19960;-73
2021/12/19 05:18:02;;;;;;;;;;;;;;;-0.30;92.52;97921.28;5093591;28;20336;-74
2021/12/19 05:20:29;;;;;;;;;;;;;;;-0.27;92.26;97923.66;5092817;28;19964;-73
2021/12/19 05:23:03;;;;;;;;;;;;;;;-0.20;92.14;97919.69;5093518;28;19957;-74
2021/12/19 05:25:29;;;;;;;;;;;;;;;-0.14;92.08;97920.97;5093680;28;19959;-74
2021/12/19 05:27:55;;;;;;;;;;;;;;;-0.12;91.73;97916.53;5092527;28;19949;-73
2021/12/19 05:30:22;;;;;;;;;;;;;;;-0.09;91.50;97919.69;5093464;28;20174;-74
2021/12/19 05:32:49;;;;;;;;;;;;;;;-0.09;91.67;97926.59;5093515;28;20316;-74
2021/12/19 05:35:21;;;;;;;;;;;;;;;-0.12;91.51;97925.09;5093655;28;20406;-74
2021/12/19 05:46:02;;;;;;;;;;;;;;;-0.04;91.16;97922.75;5093596;28;20307;-73
2021/12/19 05:48:27;;;;;;;;;;;;;;;-0.05;90.93;97921.09;5094454;28;19987;-73
2021/12/19 05:50:53;;;;;;;;;;;;;;;-0.08;91.25;97908.44;5097228;28;20356;-73
2021/12/19 05:53:19;;;;;;;;;;;;;;;-0.06;91.49;97916.09;5097184;28;20085;-74
2021/12/19 05:55:45;;;;;;;;;;;;;;;-0.05;91.42;97915.13;5097446;28;19955;-74
2021/12/19 05:58:11;;;;;;;;;;;;;;;-0.04;91.02;97914.22;5097369;28;19958;-74
2021/12/19 06:00:37;;;;;;;;;;;;;;;-0.08;90.25;97898.13;5097125;28;19952;-75
2021/12/19 06:03:03;;;;;;;;;;;;;;;-0.14;90.69;97905.50;5097501;28;19962;-73
2021/12/19 06:05:29;;;;;;;;;;;;;;;-0.14;91.02;97902.94;5096839;28;19966;-73
2021/12/19 06:07:55;;;;;;;;;;;;;;;-0.13;90.81;97895.06;5097084;28;19961;-74
2021/12/19 06:10:22;;;;;;;;;;;;;;;-0.14;90.58;97897.78;5096969;28;19949;-76
2021/12/19 06:12:49;;;;;;;;;;;;;;;-0.13;90.47;97889.09;5083751;28;19962;-73
2021/12/19 06:15:15;;;;;;;;;;;;;;;-0.13;90.59;97894.25;5096681;28;19964;-74
2021/12/19 06:17:44;;;;;;;;;;;;;;;-0.13;90.52;97889.91;5096661;28;19963;-73
2021/12/19 06:20:10;;;;;;;;;;;;;;;-0.14;90.02;97880.53;5096725;28;19966;-74
2021/12/19 06:22:37;;;;;;;;;;;;;;;-0.16;90.23;97884.19;5097045;28;19949;-74
2021/12/19 06:25:03;;;;;;;;;;;;;;;-0.13;90.46;97881.34;5096692;28;20436;-74
2021/12/19 06:27:29;;;;;;;;;;;;;;;-0.08;90.48;97879.28;5096929;28;19960;-73
2021/12/19 06:29:55;;;;;;;;;;;;;;;-0.08;90.31;97874.13;5096452;28;20320;-74
2021/12/19 06:32:21;;;;;;;;;;;;;;;-0.07;90.16;97873.16;5096575;28;20003;-74
2021/12/19 06:34:47;;;;;;;;;;;;;;;-0.04;90.15;97876.34;5096750;28;20485;-73
2021/12/19 06:37:13;;;;;;;;;;;;;;;-0.01;90.28;97877.84;5096343;28;20004;-73
2021/12/19 06:39:39;;;;;;;;;;;;;;;0.01;90.20;97859.69;5096345;28;19956;-73
2021/12/19 06:42:06;;;;;;;;;;;;;;;-0.01;89.75;97860.63;5096372;28;20017;-73
2021/12/19 06:44:32;;;;;;;;;;;;;;;-0.02;89.87;97863.34;5096313;28;19973;-74
2021/12/19 06:46:59;;;;;;;;;;;;;;;-0.02;89.73;97859.00;5078041;28;20320;-73
2021/12/19 06:49:25;;;;;;;;;;;;;;;-0.05;89.63;97861.78;5096411;28;19958;-74
2021/12/19 06:51:51;;;;;;;;;;;;;;;-0.06;89.57;97857.59;5096126;28;19956;-74
2021/12/19 06:54:17;;;;;;;;;;;;;;;-0.07;89.83;97868.00;5096072;28;20443;-74
2021/12/19 06:56:43;;;;;;;;;;;;;;;-0.08;89.94;97861.22;5096191;28;20472;-73
2021/12/19 06:59:09;;;;;;;;;;;;;;;-0.07;90.05;97855.09;5095862;28;19959;-73
2021/12/19 07:01:37;;;;;;;;;;;;;;;-0.07;90.03;97858.50;5095303;28;19964;-74
2021/12/19 07:04:03;;;;;;;;;;;;;;;-0.08;89.92;97859.44;5095936;28;19998;-74
2021/12/19 07:06:29;;;;;;;;;;;;;;;-0.06;89.95;97860.16;5095778;28;19956;-74
2021/12/19 07:08:55;;;;;;;;;;;;;;;-0.03;90.20;97856.53;5095777;28;20001;-73
2021/12/19 07:11:21;;;;;;;;;;;;;;;-0.02;90.33;97856.41;5095946;28;19960;-73
2021/12/19 07:13:47;;;;;;;;;;;;;;;0.02;90.10;97848.44;5095468;28;20336;-73
2021/12/19 07:16:13;;;;;;;;;;;;;;;0.03;89.93;97840.59;5095998;28;19953;-73
2021/12/19 07:18:39;;;;;;;;;;;;;;;0.06;90.07;97852.41;5095585;28;20423;-73
2021/12/19 07:21:06;;;;;;;;;;;;;;;0.08;90.16;97847.97;5095477;28;19960;-74
2021/12/19 07:23:32;;;;;;;;;;;;;;;0.08;90.09;97842.81;5095798;28;20439;-74
2021/12/19 07:25:58;;;;;;;;;;;;;;;0.07;89.92;97852.31;5095522;28;19958;-73
2021/12/19 07:28:24;;;;;;;;;;;;;;;0.07;90.29;97849.72;5094225;28;19959;-73
2021/12/19 07:30:50;;;;;;;;;;;;;;;0.02;89.77;97858.75;5095483;28;19959;-73
2021/12/19 07:33:18;;;;;;;;;;;;;;;-0.09;89.36;97868.13;5095252;28;20346;-73
2021/12/19 07:35:47;;;;;;;;;;;;;;;-0.21;90.17;97866.44;5095436;28;19957;-74
2021/12/19 07:38:18;;;;;;;;;;;;;;;-0.20;90.86;97865.53;5095268;28;19971;-74
2021/12/19 07:40:47;;;;;;;;;;;;;;;-0.18;90.66;97863.66;5095293;28;20318;-74
2021/12/19 07:43:13;;;;;;;;;;;;;;;-0.18;90.54;97861.09;5095338;28;19963;-73
2021/12/19 07:45:39;;;;;;;;;;;;;;;-0.23;90.61;97861.44;5094923;28;19973;-74
2021/12/19 07:48:05;;;;;;;;;;;;;;;-0.23;91.13;97863.19;5095204;28;20315;-73
2021/12/19 07:50:32;;;;;;;;;;;;;;;-0.26;90.96;97864.22;5094952;28;20005;-74
2021/12/19 07:52:58;;;;;;;;;;;;;;;-0.31;90.80;97860.38;5094689;28;19949;-74
2021/12/19 07:55:24;;;;;;;;;;;;;;;-0.37;91.36;97853.91;5094676;28;20435;-74
2021/12/19 07:57:51;;;;;;;;;;;;;;;-0.37;91.47;97848.75;5095273;28;19974;-73
2021/12/19 08:00:18;;;;;;;;;;;;;;;-0.37;91.30;97842.78;5094664;28;19984;-74
2021/12/19 08:02:45;;;;;;;;;;;;;;;-0.37;90.92;97848.75;5094787;28;19960;-73
2021/12/19 08:05:11;;;;;;;;;;;;;;;-0.45;91.48;97856.22;5094466;28;19984;-73
2021/12/19 08:07:41;;;;;;;;;;;;;;;-0.49;92.31;97855.63;5093716;28;19948;-74
2021/12/19 08:12:34;;;;;;;;;;;;;;;-0.60;91.70;97867.66;5093629;28;19964;-74
2021/12/19 08:15:00;;;;;;;;;;;;;;;-0.67;92.16;97873.28;5094615;28;20459;-73
2021/12/19 08:17:26;;;;;;;;;;;;;;;-0.72;92.54;97862.47;5094563;28;19964;-73
2021/12/19 08:19:52;;;;;;;;;;;;;;;-0.77;91.57;97854.25;5094480;28;19956;-74
2021/12/19 08:22:19;;;;;;;;;;;;;;;-0.80;92.97;97854.47;5076480;28;19976;-75
2021/12/19 08:24:47;;;;;;;;;;;;;;;-0.75;93.62;97854.16;5094039;28;19983;-73
2021/12/19 08:27:13;;;;;;;;;;;;;;;-0.66;93.52;97854.28;5094287;28;19972;-73
2021/12/19 08:29:39;;;;;;;;;;;;;;;-0.69;91.87;97854.53;5094262;28;19963;-73
2021/12/19 08:32:05;;;;;;;;;;;;;;;-0.78;92.28;97855.19;5094454;28;19962;-74
2021/12/19 08:34:31;;;;;;;;;;;;;;;-0.78;93.05;97860.34;5092914;28;19956;-74
2021/12/19 08:36:57;;;;;;;;;;;;;;;-0.76;93.62;97861.03;5093999;28;19948;-74
2021/12/19 08:39:23;;;;;;;;;;;;;;;-0.73;94.25;97858.25;5094175;28;19961;-74
2021/12/19 08:41:49;;;;;;;;;;;;;;;-0.65;94.60;97849.94;5080504;28;19959;-73
2021/12/19 08:44:15;;;;;;;;;;;;;;;-0.56;94.17;97846.72;5093942;28;19969;-73
2021/12/19 08:46:41;;;;;;;;;;;;;;;-0.57;93.79;97839.09;5094046;28;20018;-73
2021/12/19 08:49:08;;;;;;;;;;;;;;;-0.57;93.26;97839.09;5093954;28;19969;-74
2021/12/19 08:51:34;;;;;;;;;;;;;;;-0.52;94.00;97830.09;5093911;28;20338;-73
2021/12/19 08:54:01;;;;;;;;;;;;;;;-0.55;93.42;97834.66;5093734;28;20005;-74
2021/12/19 08:56:28;;;;;;;;;;;;;;;-0.57;94.24;97832.19;5075947;28;19960;-74
2021/12/19 08:58:54;;;;;;;;;;;;;;;-0.53;93.87;97828.44;5094057;28;19970;-74
2021/12/19 09:01:20;;;;;;;;;;;;;;;-0.46;93.39;97831.41;5093680;28;20343;-74
2021/12/19 09:03:46;;;;;;;;;;;;;;;-0.42;93.63;97838.78;5093976;28;19959;-74
2021/12/19 09:06:12;;;;;;;;;;;;;;;-0.36;93.75;97827.19;5093585;28;19998;-73
2021/12/19 09:08:38;;;;;;;;;;;;;;;-0.34;92.98;97827.88;5093649;28;19961;-75
2021/12/19 09:11:04;;;;;;;;;;;;;;;-0.39;92.22;97818.88;5093867;28;20357;-74
2021/12/19 09:13:30;;;;;;;;;;;;;;;-0.49;92.48;97816.16;5093844;28;20333;-74
2021/12/19 09:15:56;;;;;;;;;;;;;;;-0.47;92.96;97812.53;5093826;28;20403;-74
2021/12/19 09:18:22;;;;;;;;;;;;;;;-0.51;92.10;97818.84;5093741;28;19957;-73
2021/12/19 09:20:49;;;;;;;;;;;;;;;-0.56;92.78;97813.22;5093719;28;19967;-74
2021/12/19 09:23:15;;;;;;;;;;;;;;;-0.52;93.16;97808.66;5094299;28;19958;-74
2021/12/19 09:25:41;;;;;;;;;;;;;;;-0.47;93.49;97812.53;5098424;28;19977;-74
2021/12/19 09:28:07;;;;;;;;;;;;;;;-0.43;92.66;97816.50;5079779;28;20048;-74
2021/12/19 09:30:34;;;;;;;;;;;;;;;-0.44;92.41;97812.31;5097705;28;20420;-73
2021/12/19 09:33:00;;;;;;;;;;;;;;;-0.48;92.59;97813.47;5097730;28;19956;-73
2021/12/19 09:35:26;;;;;;;;;;;;;;;-0.48;92.86;97810.06;5097505;28;19973;-73
2021/12/19 09:37:52;;;;;;;;;;;;;;;-0.41;93.23;97798.38;5097645;28;19957;-73
2021/12/19 09:40:24;;;;;;;;;;;;;;;-0.34;93.25;97794.38;5097468;28;19955;-74
2021/12/19 09:42:59;;;;;;;;;;;;;;;-0.36;92.10;97803.97;5097432;28;19952;-73
2021/12/19 09:45:26;;;;;;;;;;;;;;;-0.38;92.84;97803.28;5096144;28;19967;-74
2021/12/19 09:47:52;;;;;;;;;;;;;;;-0.29;93.23;97806.94;5097330;28;20346;-73
2021/12/19 09:50:18;;;;;;;;;;;;;;;-0.26;92.78;97806.69;5097356;28;20026;-74
2021/12/19 09:52:46;;;;;;;;;;;;;;;-0.24;92.59;97803.06;5097383;28;19959;-74
2021/12/19 09:55:16;;;;;;;;;;;;;;;-0.33;91.15;97802.94;5096204;28;20442;-74
2021/12/19 09:57:42;;;;;;;;;;;;;;;-0.41;91.76;97800.94;5097287;28;20419;-73
2021/12/19 10:00:08;;;;;;;;;;;;;;;-0.43;91.94;97793.31;5097229;28;19957;-73
2021/12/19 10:02:34;;;;;;;;;;;;;;;-0.50;91.79;97793.91;5096855;28;19968;-75
2021/12/19 10:05:13;;;;;;;;;;;;;;;-0.51;92.56;97795.66;5096991;28;20459;-73
2021/12/19 10:07:45;;;;;;;;;;;;;;;-0.46;93.63;97790.97;5097138;28;19956;-73
2021/12/19 10:10:13;;;;;;;;;;;;;;;-0.36;94.06;97785.94;5097236;28;20328;-73
2021/12/19 10:15:11;;;;;;;;;;;;;;;-0.14;93.34;97771.44;5096934;28;19955;-74
2021/12/19 10:17:37;;;;;;;;;;;;;;;-0.09;91.95;97771.88;5078699;28;19963;-74
2021/12/19 10:20:06;;;;;;;;;;;;;;;-0.12;91.63;97767.78;5097021;28;20310;-74
2021/12/19 10:22:35;;;;;;;;;;;;;;;-0.14;91.68;97758.53;5096578;28;19975;-73
2021/12/19 10:25:07;;;;;;;;;;;;;;;-0.14;92.50;97756.78;5096825;28;19965;-74
2021/12/19 10:27:42;;;;;;;;;;;;;;;-0.22;91.22;97756.53;5096646;28;19973;-73
2021/12/19 10:30:10;;;;;;;;;;;;;;;-0.30;91.14;97761.47;5096614;28;19961;-74
2021/12/19 10:32:36;;;;;;;;;;;;;;;-0.41;92.12;97757.13;5096497;28;19955;-73
2021/12/19 10:35:15;;;;;;;;;;;;;;;-0.37;92.78;97763.69;5095712;28;19956;-73
2021/12/19 10:37:41;;;;;;;;;;;;;;;-0.30;92.06;97756.31;5087029;28;19960;-74
2021/12/19 10:40:07;;;;;;;;;;;;;;;-0.28;92.31;97757.81;5078313;28;19966;-74
2021/12/19 10:42:43;;;;;;;;;;;;;;;-0.20;92.72;97744.34;5096729;28;20287;-74
2021/12/19 10:48:07;;;;;;;;;;;;;;;0.01;92.32;97744.44;5096386;28;19956;-73
2021/12/19 10:50:50;;;;;;;;;;;;;;;0.05;91.42;97735.53;5096569;28;19959;-74
2021/12/19 10:53:16;;;;;;;;;;;;;;;0.08;91.32;97727.53;5095889;28;19987;-73
2021/12/19 10:55:47;;;;;;;;;;;;;;;0.14;91.37;97728.84;5076152;28;19964;-74
2021/12/19 10:58:20;;;;;;;;;;;;;;;0.19;91.19;97714.66;5066597;28;19960;-73
2021/12/19 11:01:04;;;;;;;;;;;;;;;0.26;91.21;97703.84;5075816;28;19962;-74
2021/12/19 11:03:44;;;;;;;;;;;;;;;0.30;90.86;97700.88;5062260;28;19960;-74
2021/12/19 11:06:18;;;;;;;;;;;;;;;0.35;91.29;97698.75;5075737;28;20348;-74
2021/12/19 11:08:45;;;;;;;;;;;;;;;0.39;91.44;97691.59;5074742;28;21028;-74
2021/12/19 11:11:11;;;;;;;;;;;;;;;0.35;90.47;97698.75;5075635;28;19961;-73
2021/12/19 11:13:37;;;;;;;;;;;;;;;0.26;90.62;97686.59;5075857;28;19961;-75
2021/12/19 11:16:03;;;;;;;;;;;;;;;0.15;91.00;97687.44;5075528;28;20310;-74
2021/12/19 11:18:29;;;;;;;;;;;;;;;0.03;90.33;97688.41;5057995;28;19968;-74
2021/12/19 11:20:55;;;;;;;;;;;;;;;-0.04;90.93;97685.50;5075549;28;20340;-74
2021/12/19 11:23:21;;;;;;;;;;;;;;;-0.02;91.97;97677.66;5075188;28;19962;-74
2021/12/19 11:25:47;;;;;;;;;;;;;;;0.01;91.65;97661.13;5075414;28;20340;-74
2021/12/19 11:28:13;;;;;;;;;;;;;;;0.00;91.18;97662.88;5075409;28;20431;-73
2021/12/19 11:30:39;;;;;;;;;;;;;;;0.02;91.78;97658.38;5075063;28;19957;-73
2021/12/19 11:33:11;;;;;;;;;;;;;;;0.06;92.20;97649.47;5075135;28;19965;-73
2021/12/19 11:35:41;;;;;;;;;;;;;;;0.08;92.81;97647.59;5057266;28;19971;-74
2021/12/19 11:38:09;;;;;;;;;;;;;;;0.08;92.37;97633.88;5075175;28;19960;-74
2021/12/19 11:40:37;;;;;;;;;;;;;;;0.13;92.75;97631.78;5074874;28;19961;-73
2021/12/19 11:43:07;;;;;;;;;;;;;;;0.16;92.64;97624.56;5075114;28;19965;-73
2021/12/19 11:48:10;;;;;;;;;;;;;;;0.23;92.56;97606.03;5074780;28;19966;-74
2021/12/19 11:50:58;;;;;;;;;;;;;;;0.26;91.68;97605.81;5074978;28;19962;-74
2021/12/19 11:53:27;;;;;;;;;;;;;;;0.23;91.50;97609.41;5066362;28;19974;-73
2021/12/19 11:56:03;;;;;;;;;;;;;;;0.28;92.04;97609.06;5093845;28;19967;-73
2021/12/19 11:58:30;;;;;;;;;;;;;;;0.36;92.28;97606.69;5093812;28;19970;-74
2021/12/19 12:01:07;;;;;;;;;;;;;;;0.41;92.17;97607.13;5094976;28;19961;-73
2021/12/19 12:03:44;;;;;;;;;;;;;;;0.46;91.90;97611.91;5095053;28;20348;-73
2021/12/19 12:06:12;;;;;;;;;;;;;;;0.47;91.57;97605.81;5094612;28;19964;-73
2021/12/19 12:08:38;;;;;;;;;;;;;;;0.39;91.02;97606.44;5076659;28;20409;-73
2021/12/19 12:11:04;;;;;;;;;;;;;;;0.27;91.19;97599.69;5094675;28;19967;-74
2021/12/19 12:13:35;;;;;;;;;;;;;;;0.23;91.85;97601.69;5094552;28;20006;-74
2021/12/19 12:16:18;;;;;;;;;;;;;;;0.20;92.16;97595.00;5095646;28;19953;-74
2021/12/19 12:18:44;;;;;;;;;;;;;;;0.25;92.49;97580.94;5094852;28;19964;-73
2021/12/19 12:21:39;;;;;;;;;;;;;;;0.31;92.42;97580.44;5076338;28;19955;-74
2021/12/19 12:24:06;;;;;;;;;;;;;;;0.37;92.23;97569.59;5094646;28;20410;-75
2021/12/19 12:26:45;;;;;;;;;;;;;;;0.43;92.09;97566.53;5094277;28;19975;-75
2021/12/19 12:29:11;;;;;;;;;;;;;;;0.48;91.88;97559.22;5081355;28;19955;-75
2021/12/19 12:31:38;;;;;;;;;;;;;;;0.53;91.59;97545.94;5094451;28;19961;-75
2021/12/19 12:34:07;;;;;;;;;;;;;;;0.52;90.98;97542.53;5093929;28;19970;-75
2021/12/19 12:36:33;;;;;;;;;;;;;;;0.54;90.97;97534.66;5076271;28;19954;-75
2021/12/19 12:39:04;;;;;;;;;;;;;;;0.56;91.03;97546.50;5093255;28;19971;-76
2021/12/19 12:41:58;;;;;;;;;;;;;;;0.56;91.20;97543.09;5094554;28;19962;-75
2021/12/19 12:44:24;;;;;;;;;;;;;;;0.62;91.41;97539.19;5079397;28;19960;-75
2021/12/19 12:46:50;;;;;;;;;;;;;;;0.65;90.86;97532.03;5094024;28;19989;-77
2021/12/19 12:49:18;;;;;;;;;;;;;;;0.64;90.70;97525.22;5093712;28;19970;-75
2021/12/19 12:51:45;;;;;;;;;;;;;;;0.63;90.92;97522.75;5094142;28;19968;-74
2021/12/19 12:54:20;;;;;;;;;;;;;;;0.59;90.80;97519.63;5093829;28;19984;-75
2021/12/19 12:56:49;;;;;;;;;;;;;;;0.56;91.46;97515.50;5075645;28;19971;-75
2021/12/19 12:59:16;;;;;;;;;;;;;;;0.60;91.86;97514.31;5093193;28;19960;-75
2021/12/19 13:01:48;;;;;;;;;;;;;;;0.63;91.63;97502.94;5075848;28;20308;-77
2021/12/19 13:04:19;;;;;;;;;;;;;;;0.65;91.22;97507.94;5085041;28;19953;-75
2021/12/19 13:06:45;;;;;;;;;;;;;;;0.65;91.64;97503.63;5093991;28;19972;-75
2021/12/19 13:09:12;;;;;;;;;;;;;;;0.66;91.30;97500.09;5093860;28;20006;-76
2021/12/19 13:11:38;;;;;;;;;;;;;;;0.66;91.12;97486.38;5075689;28;19977;-75
2021/12/19 13:14:17;;;;;;;;;;;;;;;0.65;91.30;97489.88;5093568;28;19964;-75
2021/12/19 13:16:48;;;;;;;;;;;;;;;0.65;91.58;97488.13;5093490;28;19959;-75
2021/12/19 13:19:32;;;;;;;;;;;;;;;0.64;91.23;97483.09;5093837;28;20320;-75
2021/12/19 13:21:59;;;;;;;;;;;;;;;0.65;91.54;97474.38;5093454;28;20416;-75
2021/12/19 13:24:28;;;;;;;;;;;;;;;0.67;91.47;97477.66;5093657;28;19966;-74
2021/12/19 13:27:06;;;;;;;;;;;;;;;0.64;91.05;97476.16;5092516;28;19979;-75
2021/12/19 13:29:32;;;;;;;;;;;;;;;0.60;91.22;97470.44;5093872;28;19956;-75
2021/12/19 13:32:16;;;;;;;;;;;;;;;0.52;91.04;97472.03;5093487;28;20007;-75
2021/12/19 13:34:42;;;;;;;;;;;;;;;0.44;92.35;97459.75;5093462;28;19955;-75
2021/12/19 13:37:08;;;;;;;;;;;;;;;0.46;92.05;97457.88;5075560;28;19949;-75
2021/12/19 13:39:37;;;;;;;;;;;;;;;0.39;92.11;97451.59;5075609;28;19951;-75
2021/12/19 13:42:08;;;;;;;;;;;;;;;0.36;93.04;97451.88;5093703;28;19967;-75
2021/12/19 13:44:34;;;;;;;;;;;;;;;0.35;92.98;97442.47;5078799;28;19950;-75
2021/12/19 13:47:19;;;;;;;;;;;;;;;0.41;93.18;97444.53;5075373;28;19971;-75
2021/12/19 13:49:45;;;;;;;;;;;;;;;0.49;93.24;97439.56;5093538;28;19959;-75
2021/12/19 13:52:11;;;;;;;;;;;;;;;0.57;93.01;97433.75;5093621;28;20004;-75
2021/12/19 13:54:40;;;;;;;;;;;;;;;0.57;92.55;97437.16;5064491;28;19979;-75
2021/12/19 13:57:16;;;;;;;;;;;;;;;0.51;91.66;97435.09;5072928;28;19972;-75
2021/12/19 13:59:42;;;;;;;;;;;;;;;0.39;92.44;97430.97;5063141;28;19964;-75
2021/12/19 14:02:11;;;;;;;;;;;;;;;0.27;92.59;97432.78;5058975;28;19961;-75
2021/12/19 14:04:37;;;;;;;;;;;;;;;0.17;92.67;97426.78;5073069;28;19957;-75
2021/12/19 14:07:10;;;;;;;;;;;;;;;0.11;94.08;97428.13;5073355;28;20401;-74